sensor_id;sensor_type;location;lat;lon;timestamp;temperature;humidity
51996;DHT22;38010;53.264;6.592;2023-05-29T00:00:07;17.60;99.90
51996;DHT22;38010;53.264;6.592;2023-05-29T00:02:36;17.60;99.90
51996;DHT22;38010;53.264;6.592;2023-05-29T00:05:01;17.60;99.90
51996;DHT22;38010;53.264;6.592;2023-05-29T00:07:32;17.60;99.90
51996;DHT22;38010;53.264;6.592;2023-05-29T00:10:00;17.60;99.90
51996;DHT22;38010;53.264;6.592;2023-05-29T00:12:26;17.60;99.90
51996;DHT22;38010;53.264;6.592;2023-05-29T00:14:51;17.60;99.90
51996;DHT22;38010;53.264;6.592;2023-05-29T00:17:17;17.60;99.90
51996;DHT22;38010;53.264;6.592;2023-05-29T00:19:43;17.60;99.90
51996;DHT22;38010;53.264;6.592;2023-05-29T00:22:09;17.60;99.90
51996;DHT22;38010;53.264;6.592;2023-05-29T00:24:35;17.60;99.90
51996;DHT22;38010;53.264;6.592;2023-05-29T00:27:01;17.60;99.90
51996;DHT22;38010;53.264;6.592;2023-05-29T00:29:27;17.60;99.90
51996;DHT22;38010;53.264;6.592;2023-05-29T00:31:53;17.50;99.90
51996;DHT22;38010;53.264;6.592;2023-05-29T00:34:23;17.50;99.90
51996;DHT22;38010;53.264;6.592;2023-05-29T00:36:49;17.50;99.90
51996;DHT22;38010;53.264;6.592;2023-05-29T00:39:15;17.50;99.90
51996;DHT22;38010;53.264;6.592;2023-05-29T00:41:40;17.60;99.90
51996;DHT22;38010;53.264;6.592;2023-05-29T00:44:06;17.50;99.90
51996;DHT22;38010;53.264;6.592;2023-05-29T00:46:33;17.50;99.90
51996;DHT22;38010;53.264;6.592;2023-05-29T00:48:59;17.50;99.90
51996;DHT22;38010;53.264;6.592;2023-05-29T00:51:27;17.50;99.90
51996;DHT22;38010;53.264;6.592;2023-05-29T00:53:54;17.50;99.90
51996;DHT22;38010;53.264;6.592;2023-05-29T00:56:21;17.50;99.90
51996;DHT22;38010;53.264;6.592;2023-05-29T00:58:49;17.50;99.90
51996;DHT22;38010;53.264;6.592;2023-05-29T01:01:17;17.50;99.90
51996;DHT22;38010;53.264;6.592;2023-05-29T01:03:44;17.50;99.90
51996;DHT22;38010;53.264;6.592;2023-05-29T01:06:10;17.40;99.90
51996;DHT22;38010;53.264;6.592;2023-05-29T01:08:37;17.40;99.90
51996;DHT22;38010;53.264;6.592;2023-05-29T01:14:00;17.40;99.90
51996;DHT22;38010;53.264;6.592;2023-05-29T01:16:33;17.40;99.90
51996;DHT22;38010;53.264;6.592;2023-05-29T01:22:12;17.40;99.90
51996;DHT22;38010;53.264;6.592;2023-05-29T01:24:49;17.40;99.90
51996;DHT22;38010;53.264;6.592;2023-05-29T01:27:18;17.40;99.90
51996;DHT22;38010;53.264;6.592;2023-05-29T01:29:46;17.40;99.90
51996;DHT22;38010;53.264;6.592;2023-05-29T01:32:13;17.40;99.90
51996;DHT22;38010;53.264;6.592;2023-05-29T01:34:39;17.40;99.90
51996;DHT22;38010;53.264;6.592;2023-05-29T01:37:04;17.40;99.90
51996;DHT22;38010;53.264;6.592;2023-05-29T01:39:31;17.40;99.90
51996;DHT22;38010;53.264;6.592;2023-05-29T01:41:59;17.40;99.90
51996;DHT22;38010;53.264;6.592;2023-05-29T01:44:26;17.40;99.90
51996;DHT22;38010;53.264;6.592;2023-05-29T01:46:53;17.40;99.90
51996;DHT22;38010;53.264;6.592;2023-05-29T01:49:19;17.40;99.90
51996;DHT22;38010;53.264;6.592;2023-05-29T01:51:46;17.40;99.90
51996;DHT22;38010;53.264;6.592;2023-05-29T01:54:11;17.40;99.90
51996;DHT22;38010;53.264;6.592;2023-05-29T01:56:38;17.40;99.90
51996;DHT22;38010;53.264;6.592;2023-05-29T01:59:05;17.40;99.90
51996;DHT22;38010;53.264;6.592;2023-05-29T02:01:31;17.40;99.90
51996;DHT22;38010;53.264;6.592;2023-05-29T02:03:57;17.40;99.90
51996;DHT22;38010;53.264;6.592;2023-05-29T02:06:23;17.40;99.90
51996;DHT22;38010;53.264;6.592;2023-05-29T02:08:49;17.40;99.90
51996;DHT22;38010;53.264;6.592;2023-05-29T02:11:14;17.40;99.90
51996;DHT22;38010;53.264;6.592;2023-05-29T02:13:41;17.40;99.90
51996;DHT22;38010;53.264;6.592;2023-05-29T02:16:07;17.30;99.90
51996;DHT22;38010;53.264;6.592;2023-05-29T02:18:33;17.40;99.90
51996;DHT22;38010;53.264;6.592;2023-05-29T02:21:00;17.40;99.90
51996;DHT22;38010;53.264;6.592;2023-05-29T02:23:26;17.30;99.90
51996;DHT22;38010;53.264;6.592;2023-05-29T02:25:51;17.30;99.90
51996;DHT22;38010;53.264;6.592;2023-05-29T02:28:17;17.30;99.90
51996;DHT22;38010;53.264;6.592;2023-05-29T02:30:43;17.30;99.90
51996;DHT22;38010;53.264;6.592;2023-05-29T02:33:09;17.30;99.90
51996;DHT22;38010;53.264;6.592;2023-05-29T02:35:34;17.30;99.90
51996;DHT22;38010;53.264;6.592;2023-05-29T02:38:00;17.30;99.90
51996;DHT22;38010;53.264;6.592;2023-05-29T02:40:26;17.30;99.90
51996;DHT22;38010;53.264;6.592;2023-05-29T02:42:51;17.30;99.90
51996;DHT22;38010;53.264;6.592;2023-05-29T02:45:17;17.30;99.90
51996;DHT22;38010;53.264;6.592;2023-05-29T02:47:43;17.30;99.90
51996;DHT22;38010;53.264;6.592;2023-05-29T02:50:09;17.30;99.90
51996;DHT22;38010;53.264;6.592;2023-05-29T02:52:36;17.30;99.90
51996;DHT22;38010;53.264;6.592;2023-05-29T02:55:05;17.30;99.90
51996;DHT22;38010;53.264;6.592;2023-05-29T02:57:31;17.30;99.90
51996;DHT22;38010;53.264;6.592;2023-05-29T02:59:58;17.30;99.90
51996;DHT22;38010;53.264;6.592;2023-05-29T03:02:23;17.30;99.90
51996;DHT22;38010;53.264;6.592;2023-05-29T03:04:49;17.20;99.90
51996;DHT22;38010;53.264;6.592;2023-05-29T03:07:16;17.20;99.90
51996;DHT22;38010;53.264;6.592;2023-05-29T03:09:42;17.20;99.90
51996;DHT22;38010;53.264;6.592;2023-05-29T03:12:08;17.20;99.90
51996;DHT22;38010;53.264;6.592;2023-05-29T03:14:33;17.20;99.90
51996;DHT22;38010;53.264;6.592;2023-05-29T03:17:05;17.20;99.90
51996;DHT22;38010;53.264;6.592;2023-05-29T03:19:31;17.20;99.90
51996;DHT22;38010;53.264;6.592;2023-05-29T03:21:57;17.20;99.90
51996;DHT22;38010;53.264;6.592;2023-05-29T03:24:22;17.20;99.90
51996;DHT22;38010;53.264;6.592;2023-05-29T03:26:53;17.30;99.90
51996;DHT22;38010;53.264;6.592;2023-05-29T03:29:18;17.20;99.90
51996;DHT22;38010;53.264;6.592;2023-05-29T03:31:44;17.20;99.90
51996;DHT22;38010;53.264;6.592;2023-05-29T03:34:10;17.20;99.90
51996;DHT22;38010;53.264;6.592;2023-05-29T03:36:35;17.20;99.90
51996;DHT22;38010;53.264;6.592;2023-05-29T03:39:04;17.20;99.90
51996;DHT22;38010;53.264;6.592;2023-05-29T03:41:30;17.20;99.90
51996;DHT22;38010;53.264;6.592;2023-05-29T03:43:56;17.20;99.90
51996;DHT22;38010;53.264;6.592;2023-05-29T03:46:22;17.20;99.90
51996;DHT22;38010;53.264;6.592;2023-05-29T03:48:47;17.20;99.90
51996;DHT22;38010;53.264;6.592;2023-05-29T03:51:13;17.20;99.90
51996;DHT22;38010;53.264;6.592;2023-05-29T03:53:39;17.20;99.90
51996;DHT22;38010;53.264;6.592;2023-05-29T03:56:05;17.20;99.90
51996;DHT22;38010;53.264;6.592;2023-05-29T03:58:31;17.20;99.90
51996;DHT22;38010;53.264;6.592;2023-05-29T04:00:57;17.20;99.90
51996;DHT22;38010;53.264;6.592;2023-05-29T04:03:22;17.20;99.90
51996;DHT22;38010;53.264;6.592;2023-05-29T04:05:48;17.20;99.90
51996;DHT22;38010;53.264;6.592;2023-05-29T04:08:14;17.20;99.90
51996;DHT22;38010;53.264;6.592;2023-05-29T04:10:40;17.20;99.90
51996;DHT22;38010;53.264;6.592;2023-05-29T04:13:06;17.20;99.90
51996;DHT22;38010;53.264;6.592;2023-05-29T04:15:32;17.20;99.90
51996;DHT22;38010;53.264;6.592;2023-05-29T04:17:59;17.20;99.90
51996;DHT22;38010;53.264;6.592;2023-05-29T04:20:25;17.20;99.90
51996;DHT22;38010;53.264;6.592;2023-05-29T04:22:51;17.20;99.90
51996;DHT22;38010;53.264;6.592;2023-05-29T04:25:17;17.20;99.90
51996;DHT22;38010;53.264;6.592;2023-05-29T04:27:44;17.20;99.90
51996;DHT22;38010;53.264;6.592;2023-05-29T04:30:14;17.20;99.90
51996;DHT22;38010;53.264;6.592;2023-05-29T04:32:40;17.20;99.90
51996;DHT22;38010;53.264;6.592;2023-05-29T04:35:06;17.20;99.90
51996;DHT22;38010;53.264;6.592;2023-05-29T04:37:32;17.20;99.90
51996;DHT22;38010;53.264;6.592;2023-05-29T04:40:07;17.20;99.90
51996;DHT22;38010;53.264;6.592;2023-05-29T04:42:37;17.20;99.90
51996;DHT22;38010;53.264;6.592;2023-05-29T04:45:04;17.20;99.90
51996;DHT22;38010;53.264;6.592;2023-05-29T04:47:32;17.20;99.90
51996;DHT22;38010;53.264;6.592;2023-05-29T04:50:01;17.20;99.90
51996;DHT22;38010;53.264;6.592;2023-05-29T04:52:27;17.20;99.90
51996;DHT22;38010;53.264;6.592;2023-05-29T04:54:54;17.20;99.90
51996;DHT22;38010;53.264;6.592;2023-05-29T04:57:20;17.20;99.90
51996;DHT22;38010;53.264;6.592;2023-05-29T04:59:46;17.20;99.90
51996;DHT22;38010;53.264;6.592;2023-05-29T05:02:11;17.20;99.90
51996;DHT22;38010;53.264;6.592;2023-05-29T05:04:37;17.20;99.90
51996;DHT22;38010;53.264;6.592;2023-05-29T05:07:05;17.20;99.90
51996;DHT22;38010;53.264;6.592;2023-05-29T05:09:31;17.20;99.90
51996;DHT22;38010;53.264;6.592;2023-05-29T05:11:57;17.20;99.90
51996;DHT22;38010;53.264;6.592;2023-05-29T05:14:23;17.20;99.90
51996;DHT22;38010;53.264;6.592;2023-05-29T05:16:48;17.20;99.90
51996;DHT22;38010;53.264;6.592;2023-05-29T05:19:15;17.20;99.90
51996;DHT22;38010;53.264;6.592;2023-05-29T05:21:41;17.20;99.90
51996;DHT22;38010;53.264;6.592;2023-05-29T05:24:06;17.20;99.90
51996;DHT22;38010;53.264;6.592;2023-05-29T05:26:32;17.20;99.90
51996;DHT22;38010;53.264;6.592;2023-05-29T05:28:58;17.20;99.90
51996;DHT22;38010;53.264;6.592;2023-05-29T05:31:24;17.20;99.90
51996;DHT22;38010;53.264;6.592;2023-05-29T05:33:49;17.20;99.90
51996;DHT22;38010;53.264;6.592;2023-05-29T05:36:15;17.20;99.90
51996;DHT22;38010;53.264;6.592;2023-05-29T05:38:41;17.20;99.90
51996;DHT22;38010;53.264;6.592;2023-05-29T05:41:07;17.20;99.90
51996;DHT22;38010;53.264;6.592;2023-05-29T05:43:32;17.20;99.90
51996;DHT22;38010;53.264;6.592;2023-05-29T05:45:58;17.20;99.90
51996;DHT22;38010;53.264;6.592;2023-05-29T05:48:24;17.20;99.90
51996;DHT22;38010;53.264;6.592;2023-05-29T05:50:50;17.20;99.90
51996;DHT22;38010;53.264;6.592;2023-05-29T05:53:16;17.20;99.90
51996;DHT22;38010;53.264;6.592;2023-05-29T05:55:42;17.20;99.90
51996;DHT22;38010;53.264;6.592;2023-05-29T05:58:08;17.20;99.90
51996;DHT22;38010;53.264;6.592;2023-05-29T06:00:34;17.20;99.90
51996;DHT22;38010;53.264;6.592;2023-05-29T06:02:59;17.20;99.90
51996;DHT22;38010;53.264;6.592;2023-05-29T06:05:28;17.20;99.90
51996;DHT22;38010;53.264;6.592;2023-05-29T06:07:54;17.20;99.90
51996;DHT22;38010;53.264;6.592;2023-05-29T06:10:20;17.20;99.90
51996;DHT22;38010;53.264;6.592;2023-05-29T06:12:46;17.20;99.90
51996;DHT22;38010;53.264;6.592;2023-05-29T06:15:11;17.20;99.90
51996;DHT22;38010;53.264;6.592;2023-05-29T06:17:38;17.20;99.90
51996;DHT22;38010;53.264;6.592;2023-05-29T06:20:05;17.20;99.90
51996;DHT22;38010;53.264;6.592;2023-05-29T06:22:39;17.20;99.90
51996;DHT22;38010;53.264;6.592;2023-05-29T06:25:05;17.20;99.90
51996;DHT22;38010;53.264;6.592;2023-05-29T06:27:30;17.20;99.90
51996;DHT22;38010;53.264;6.592;2023-05-29T06:29:56;17.20;99.90
51996;DHT22;38010;53.264;6.592;2023-05-29T06:32:22;17.20;99.90
51996;DHT22;38010;53.264;6.592;2023-05-29T06:34:47;17.20;99.90
51996;DHT22;38010;53.264;6.592;2023-05-29T06:37:14;17.20;99.90
51996;DHT22;38010;53.264;6.592;2023-05-29T06:39:43;17.20;99.90
51996;DHT22;38010;53.264;6.592;2023-05-29T06:42:09;17.20;99.90
51996;DHT22;38010;53.264;6.592;2023-05-29T06:44:35;17.20;99.90
51996;DHT22;38010;53.264;6.592;2023-05-29T06:47:01;17.20;99.90
51996;DHT22;38010;53.264;6.592;2023-05-29T06:49:27;17.20;99.90
51996;DHT22;38010;53.264;6.592;2023-05-29T06:51:52;17.20;99.90
51996;DHT22;38010;53.264;6.592;2023-05-29T06:54:18;17.20;99.90
51996;DHT22;38010;53.264;6.592;2023-05-29T06:56:44;17.20;99.90
51996;DHT22;38010;53.264;6.592;2023-05-29T06:59:09;17.20;99.90
51996;DHT22;38010;53.264;6.592;2023-05-29T07:01:35;17.20;99.90
51996;DHT22;38010;53.264;6.592;2023-05-29T07:04:01;17.20;99.90
51996;DHT22;38010;53.264;6.592;2023-05-29T07:06:26;17.20;99.90
51996;DHT22;38010;53.264;6.592;2023-05-29T07:08:52;17.20;99.90
51996;DHT22;38010;53.264;6.592;2023-05-29T07:11:18;17.20;99.90
51996;DHT22;38010;53.264;6.592;2023-05-29T07:13:44;17.20;99.90
51996;DHT22;38010;53.264;6.592;2023-05-29T07:16:12;17.20;99.90
51996;DHT22;38010;53.264;6.592;2023-05-29T07:18:37;17.20;99.90
51996;DHT22;38010;53.264;6.592;2023-05-29T07:21:03;17.20;99.90
51996;DHT22;38010;53.264;6.592;2023-05-29T07:23:29;17.20;99.90
51996;DHT22;38010;53.264;6.592;2023-05-29T07:25:55;17.20;99.90
51996;DHT22;38010;53.264;6.592;2023-05-29T07:28:20;17.20;99.90
51996;DHT22;38010;53.264;6.592;2023-05-29T07:30:46;17.20;99.90
51996;DHT22;38010;53.264;6.592;2023-05-29T07:33:12;17.20;99.90
51996;DHT22;38010;53.264;6.592;2023-05-29T07:35:37;17.20;99.90
51996;DHT22;38010;53.264;6.592;2023-05-29T07:38:03;17.20;99.90
51996;DHT22;38010;53.264;6.592;2023-05-29T07:40:29;17.20;99.90
51996;DHT22;38010;53.264;6.592;2023-05-29T07:42:55;17.20;99.90
51996;DHT22;38010;53.264;6.592;2023-05-29T07:45:20;17.20;99.90
51996;DHT22;38010;53.264;6.592;2023-05-29T07:47:46;17.20;99.90
51996;DHT22;38010;53.264;6.592;2023-05-29T07:50:14;17.20;99.90
51996;DHT22;38010;53.264;6.592;2023-05-29T07:52:40;17.20;99.90
51996;DHT22;38010;53.264;6.592;2023-05-29T07:55:07;17.20;99.90
51996;DHT22;38010;53.264;6.592;2023-05-29T07:57:33;17.20;99.90
51996;DHT22;38010;53.264;6.592;2023-05-29T07:59:59;17.30;99.90
51996;DHT22;38010;53.264;6.592;2023-05-29T08:02:24;17.20;99.90
51996;DHT22;38010;53.264;6.592;2023-05-29T08:04:50;17.20;99.90
51996;DHT22;38010;53.264;6.592;2023-05-29T08:07:16;17.20;99.90
51996;DHT22;38010;53.264;6.592;2023-05-29T08:09:42;17.20;99.90
51996;DHT22;38010;53.264;6.592;2023-05-29T08:12:08;17.20;99.90
51996;DHT22;38010;53.264;6.592;2023-05-29T08:14:33;17.30;99.90
51996;DHT22;38010;53.264;6.592;2023-05-29T08:16:59;17.30;99.90
51996;DHT22;38010;53.264;6.592;2023-05-29T08:19:25;17.20;99.90
51996;DHT22;38010;53.264;6.592;2023-05-29T08:21:51;17.20;99.90
51996;DHT22;38010;53.264;6.592;2023-05-29T08:24:16;17.20;99.90
51996;DHT22;38010;53.264;6.592;2023-05-29T08:26:43;17.30;99.90
51996;DHT22;38010;53.264;6.592;2023-05-29T08:29:09;17.30;99.90
51996;DHT22;38010;53.264;6.592;2023-05-29T08:31:35;17.30;99.90
51996;DHT22;38010;53.264;6.592;2023-05-29T08:34:01;17.30;99.90
51996;DHT22;38010;53.264;6.592;2023-05-29T08:36:27;17.30;99.90
51996;DHT22;38010;53.264;6.592;2023-05-29T08:38:53;17.30;99.90
51996;DHT22;38010;53.264;6.592;2023-05-29T08:41:31;17.30;99.90
51996;DHT22;38010;53.264;6.592;2023-05-29T08:44:03;17.30;99.90
51996;DHT22;38010;53.264;6.592;2023-05-29T08:46:32;17.30;99.90
51996;DHT22;38010;53.264;6.592;2023-05-29T08:48:58;17.30;99.90
51996;DHT22;38010;53.264;6.592;2023-05-29T08:51:29;17.30;99.90
51996;DHT22;38010;53.264;6.592;2023-05-29T08:53:57;17.30;99.90
51996;DHT22;38010;53.264;6.592;2023-05-29T08:56:23;17.30;99.90
51996;DHT22;38010;53.264;6.592;2023-05-29T08:58:49;17.30;99.90
51996;DHT22;38010;53.264;6.592;2023-05-29T09:01:16;17.30;99.90
51996;DHT22;38010;53.264;6.592;2023-05-29T09:03:42;17.30;99.90
51996;DHT22;38010;53.264;6.592;2023-05-29T09:06:08;17.30;99.90
51996;DHT22;38010;53.264;6.592;2023-05-29T09:08:35;17.30;99.90
51996;DHT22;38010;53.264;6.592;2023-05-29T09:11:02;17.30;99.90
51996;DHT22;38010;53.264;6.592;2023-05-29T09:13:28;17.30;99.90
51996;DHT22;38010;53.264;6.592;2023-05-29T09:15:58;17.40;99.90
51996;DHT22;38010;53.264;6.592;2023-05-29T09:18:29;17.40;99.90
51996;DHT22;38010;53.264;6.592;2023-05-29T09:20:55;17.40;99.90
51996;DHT22;38010;53.264;6.592;2023-05-29T09:23:21;17.40;99.90
51996;DHT22;38010;53.264;6.592;2023-05-29T09:25:52;17.40;99.90
51996;DHT22;38010;53.264;6.592;2023-05-29T09:28:19;17.40;99.90
51996;DHT22;38010;53.264;6.592;2023-05-29T09:30:46;17.40;99.90
51996;DHT22;38010;53.264;6.592;2023-05-29T09:33:14;17.50;99.90
51996;DHT22;38010;53.264;6.592;2023-05-29T09:35:40;17.50;99.90
51996;DHT22;38010;53.264;6.592;2023-05-29T09:38:12;17.50;99.90
51996;DHT22;38010;53.264;6.592;2023-05-29T09:40:39;17.50;99.90
51996;DHT22;38010;53.264;6.592;2023-05-29T09:43:12;17.60;99.90
51996;DHT22;38010;53.264;6.592;2023-05-29T09:45:41;17.60;99.90
51996;DHT22;38010;53.264;6.592;2023-05-29T09:48:11;17.60;99.90
51996;DHT22;38010;53.264;6.592;2023-05-29T09:50:37;17.50;99.90
51996;DHT22;38010;53.264;6.592;2023-05-29T09:53:22;17.50;99.90
51996;DHT22;38010;53.264;6.592;2023-05-29T09:55:52;17.60;99.90
51996;DHT22;38010;53.264;6.592;2023-05-29T09:58:18;17.50;99.90
51996;DHT22;38010;53.264;6.592;2023-05-29T10:00:45;17.50;99.90
51996;DHT22;38010;53.264;6.592;2023-05-29T10:03:13;17.50;99.90
51996;DHT22;38010;53.264;6.592;2023-05-29T10:05:44;17.50;99.90
51996;DHT22;38010;53.264;6.592;2023-05-29T10:08:14;17.50;99.90
51996;DHT22;38010;53.264;6.592;2023-05-29T10:10:54;17.50;99.90
51996;DHT22;38010;53.264;6.592;2023-05-29T10:13:22;17.50;99.90
51996;DHT22;38010;53.264;6.592;2023-05-29T10:15:51;17.50;99.90
51996;DHT22;38010;53.264;6.592;2023-05-29T10:18:33;17.50;99.90
51996;DHT22;38010;53.264;6.592;2023-05-29T10:21:01;17.50;99.90
51996;DHT22;38010;53.264;6.592;2023-05-29T10:23:28;17.50;99.90
51996;DHT22;38010;53.264;6.592;2023-05-29T10:26:15;17.50;99.90
51996;DHT22;38010;53.264;6.592;2023-05-29T10:28:46;17.50;99.90
51996;DHT22;38010;53.264;6.592;2023-05-29T10:31:20;17.50;99.90
51996;DHT22;38010;53.264;6.592;2023-05-29T10:36:26;17.50;99.90
51996;DHT22;38010;53.264;6.592;2023-05-29T10:38:53;17.50;99.90
51996;DHT22;38010;53.264;6.592;2023-05-29T10:44:01;17.50;99.90
51996;DHT22;38010;53.264;6.592;2023-05-29T10:49:17;17.50;99.90
51996;DHT22;38010;53.264;6.592;2023-05-29T10:51:43;17.50;99.90
51996;DHT22;38010;53.264;6.592;2023-05-29T10:54:10;17.50;99.90
51996;DHT22;38010;53.264;6.592;2023-05-29T10:56:36;17.50;99.90
51996;DHT22;38010;53.264;6.592;2023-05-29T10:59:02;17.50;99.90
51996;DHT22;38010;53.264;6.592;2023-05-29T11:01:35;17.50;99.90
51996;DHT22;38010;53.264;6.592;2023-05-29T11:06:52;17.50;99.90
51996;DHT22;38010;53.264;6.592;2023-05-29T11:09:37;17.50;99.90
51996;DHT22;38010;53.264;6.592;2023-05-29T11:15:06;17.50;99.90
51996;DHT22;38010;53.264;6.592;2023-05-29T11:17:43;17.50;99.90
51996;DHT22;38010;53.264;6.592;2023-05-29T11:20:30;17.50;99.90
51996;DHT22;38010;53.264;6.592;2023-05-29T11:23:03;17.50;99.90
51996;DHT22;38010;53.264;6.592;2023-05-29T11:25:35;17.50;99.90
51996;DHT22;38010;53.264;6.592;2023-05-29T11:28:01;17.50;99.90
51996;DHT22;38010;53.264;6.592;2023-05-29T11:30:30;17.50;99.90
51996;DHT22;38010;53.264;6.592;2023-05-29T11:32:59;17.50;99.90
51996;DHT22;38010;53.264;6.592;2023-05-29T11:35:29;17.50;99.90
51996;DHT22;38010;53.264;6.592;2023-05-29T11:37:57;17.50;99.90
51996;DHT22;38010;53.264;6.592;2023-05-29T11:40:23;17.50;99.90
51996;DHT22;38010;53.264;6.592;2023-05-29T11:42:50;17.50;99.90
51996;DHT22;38010;53.264;6.592;2023-05-29T11:45:18;17.50;99.90
51996;DHT22;38010;53.264;6.592;2023-05-29T11:47:58;17.50;99.90
51996;DHT22;38010;53.264;6.592;2023-05-29T11:50:25;17.50;99.90
51996;DHT22;38010;53.264;6.592;2023-05-29T11:52:52;17.50;99.90
51996;DHT22;38010;53.264;6.592;2023-05-29T11:55:22;17.50;99.90
51996;DHT22;38010;53.264;6.592;2023-05-29T11:57:49;17.50;99.90
51996;DHT22;38010;53.264;6.592;2023-05-29T12:00:15;17.50;99.90
51996;DHT22;38010;53.264;6.592;2023-05-29T12:02:42;17.50;99.90
51996;DHT22;38010;53.264;6.592;2023-05-29T12:05:09;17.50;99.90
51996;DHT22;38010;53.264;6.592;2023-05-29T12:07:36;17.60;99.90
51996;DHT22;38010;53.264;6.592;2023-05-29T12:10:16;17.60;99.90
51996;DHT22;38010;53.264;6.592;2023-05-29T12:12:46;17.60;99.90
51996;DHT22;38010;53.264;6.592;2023-05-29T12:15:12;17.60;99.90
51996;DHT22;38010;53.264;6.592;2023-05-29T12:17:40;17.60;99.90
51996;DHT22;38010;53.264;6.592;2023-05-29T12:20:06;17.60;99.90
51996;DHT22;38010;53.264;6.592;2023-05-29T12:22:36;17.60;99.90
51996;DHT22;38010;53.264;6.592;2023-05-29T12:25:19;17.70;99.90
51996;DHT22;38010;53.264;6.592;2023-05-29T12:27:47;17.70;99.90
51996;DHT22;38010;53.264;6.592;2023-05-29T12:30:19;17.70;99.90
51996;DHT22;38010;53.264;6.592;2023-05-29T12:32:47;17.70;99.90
51996;DHT22;38010;53.264;6.592;2023-05-29T12:35:14;17.70;99.90
51996;DHT22;38010;53.264;6.592;2023-05-29T12:40:19;17.80;99.90
51996;DHT22;38010;53.264;6.592;2023-05-29T12:42:54;17.80;99.90
51996;DHT22;38010;53.264;6.592;2023-05-29T12:45:25;17.80;99.90
51996;DHT22;38010;53.264;6.592;2023-05-29T12:47:56;17.80;99.90
51996;DHT22;38010;53.264;6.592;2023-05-29T12:52:58;17.80;99.90
51996;DHT22;38010;53.264;6.592;2023-05-29T12:55:26;17.80;99.90
51996;DHT22;38010;53.264;6.592;2023-05-29T12:57:53;17.90;99.90
51996;DHT22;38010;53.264;6.592;2023-05-29T13:02:46;17.90;99.90
51996;DHT22;38010;53.264;6.592;2023-05-29T13:05:13;18.00;99.90
51996;DHT22;38010;53.264;6.592;2023-05-29T13:07:39;18.00;99.90
51996;DHT22;38010;53.264;6.592;2023-05-29T13:10:06;18.10;99.90
51996;DHT22;38010;53.264;6.592;2023-05-29T13:12:31;18.10;99.90
51996;DHT22;38010;53.264;6.592;2023-05-29T13:14:57;18.10;99.90
51996;DHT22;38010;53.264;6.592;2023-05-29T13:17:23;18.10;99.90
51996;DHT22;38010;53.264;6.592;2023-05-29T13:19:49;18.20;99.90
51996;DHT22;38010;53.264;6.592;2023-05-29T13:22:15;18.20;99.90
51996;DHT22;38010;53.264;6.592;2023-05-29T13:24:41;18.30;99.90
51996;DHT22;38010;53.264;6.592;2023-05-29T13:27:07;18.30;99.90
51996;DHT22;38010;53.264;6.592;2023-05-29T13:29:33;18.30;99.90
51996;DHT22;38010;53.264;6.592;2023-05-29T13:31:59;18.30;99.90
51996;DHT22;38010;53.264;6.592;2023-05-29T13:34:24;18.40;99.90
51996;DHT22;38010;53.264;6.592;2023-05-29T13:36:55;18.40;99.90
51996;DHT22;38010;53.264;6.592;2023-05-29T13:39:20;18.50;99.90
51996;DHT22;38010;53.264;6.592;2023-05-29T13:41:46;18.50;99.90
51996;DHT22;38010;53.264;6.592;2023-05-29T13:44:12;18.60;99.90
51996;DHT22;38010;53.264;6.592;2023-05-29T13:46:38;18.70;99.90
51996;DHT22;38010;53.264;6.592;2023-05-29T13:49:04;18.70;99.90
51996;DHT22;38010;53.264;6.592;2023-05-29T13:51:29;18.80;99.90
51996;DHT22;38010;53.264;6.592;2023-05-29T13:53:55;18.90;99.90
51996;DHT22;38010;53.264;6.592;2023-05-29T13:56:21;18.90;99.90
51996;DHT22;38010;53.264;6.592;2023-05-29T13:58:47;19.00;99.90
51996;DHT22;38010;53.264;6.592;2023-05-29T14:01:13;19.10;99.90
51996;DHT22;38010;53.264;6.592;2023-05-29T14:03:40;19.30;99.90
51996;DHT22;38010;53.264;6.592;2023-05-29T14:06:05;20.10;99.90
51996;DHT22;38010;53.264;6.592;2023-05-29T14:08:31;20.50;99.90
51996;DHT22;38010;53.264;6.592;2023-05-29T14:10:57;22.00;99.30
51996;DHT22;38010;53.264;6.592;2023-05-29T14:13:23;23.20;98.10
51996;DHT22;38010;53.264;6.592;2023-05-29T14:15:48;24.40;96.80
51996;DHT22;38010;53.264;6.592;2023-05-29T14:18:15;25.60;95.00
51996;DHT22;38010;53.264;6.592;2023-05-29T14:20:41;26.40;93.00
51996;DHT22;38010;53.264;6.592;2023-05-29T14:23:07;27.10;90.90
51996;DHT22;38010;53.264;6.592;2023-05-29T14:25:39;27.70;87.60
51996;DHT22;38010;53.264;6.592;2023-05-29T14:28:05;27.70;82.50
51996;DHT22;38010;53.264;6.592;2023-05-29T14:30:32;27.90;81.80
51996;DHT22;38010;53.264;6.592;2023-05-29T14:32:57;28.40;79.60
51996;DHT22;38010;53.264;6.592;2023-05-29T14:35:23;28.70;76.20
51996;DHT22;38010;53.264;6.592;2023-05-29T14:37:49;28.80;74.30
51996;DHT22;38010;53.264;6.592;2023-05-29T14:40:14;28.10;73.10
51996;DHT22;38010;53.264;6.592;2023-05-29T14:42:40;27.10;73.20
51996;DHT22;38010;53.264;6.592;2023-05-29T14:45:07;26.20;74.10
51996;DHT22;38010;53.264;6.592;2023-05-29T14:47:33;25.40;75.50
51996;DHT22;38010;53.264;6.592;2023-05-29T14:49:58;24.70;77.40
51996;DHT22;38010;53.264;6.592;2023-05-29T14:52:24;24.10;79.40
51996;DHT22;38010;53.264;6.592;2023-05-29T14:54:50;23.60;81.20
51996;DHT22;38010;53.264;6.592;2023-05-29T14:57:15;23.10;83.00
51996;DHT22;38010;53.264;6.592;2023-05-29T14:59:41;22.70;84.90
51996;DHT22;38010;53.264;6.592;2023-05-29T15:02:07;22.40;86.50
51996;DHT22;38010;53.264;6.592;2023-05-29T15:04:32;22.10;88.10
51996;DHT22;38010;53.264;6.592;2023-05-29T15:06:58;21.90;89.80
51996;DHT22;38010;53.264;6.592;2023-05-29T15:09:24;21.70;90.60
51996;DHT22;38010;53.264;6.592;2023-05-29T15:11:49;21.50;91.20
51996;DHT22;38010;53.264;6.592;2023-05-29T15:14:16;21.30;91.90
51996;DHT22;38010;53.264;6.592;2023-05-29T15:16:43;21.20;92.50
51996;DHT22;38010;53.264;6.592;2023-05-29T15:19:08;21.00;93.00
51996;DHT22;38010;53.264;6.592;2023-05-29T15:21:34;21.00;93.50
51996;DHT22;38010;53.264;6.592;2023-05-29T15:24:00;20.90;93.90
51996;DHT22;38010;53.264;6.592;2023-05-29T15:26:26;20.80;94.30
51996;DHT22;38010;53.264;6.592;2023-05-29T15:28:52;20.70;94.60
51996;DHT22;38010;53.264;6.592;2023-05-29T15:31:17;20.60;95.00
51996;DHT22;38010;53.264;6.592;2023-05-29T15:33:43;20.50;95.30
51996;DHT22;38010;53.264;6.592;2023-05-29T15:36:09;20.40;95.50
51996;DHT22;38010;53.264;6.592;2023-05-29T15:38:35;20.40;95.70
51996;DHT22;38010;53.264;6.592;2023-05-29T15:41:01;20.30;95.90
51996;DHT22;38010;53.264;6.592;2023-05-29T15:43:26;20.30;96.00
51996;DHT22;38010;53.264;6.592;2023-05-29T15:45:52;20.20;96.20
51996;DHT22;38010;53.264;6.592;2023-05-29T15:48:18;20.20;96.40
51996;DHT22;38010;53.264;6.592;2023-05-29T15:50:43;20.20;96.60
51996;DHT22;38010;53.264;6.592;2023-05-29T15:53:09;20.10;96.80
51996;DHT22;38010;53.264;6.592;2023-05-29T15:55:35;20.00;96.90